sensor_id;sensor_type;location;lat;lon;timestamp;temperature;humidity
16174;DHT22;14031;50.158;8.626;2023-03-13T00:02:25;9.20;99.90
16174;DHT22;14031;50.158;8.626;2023-03-13T00:04:51;9.20;99.90
16174;DHT22;14031;50.158;8.626;2023-03-13T00:07:18;9.20;99.90
16174;DHT22;14031;50.158;8.626;2023-03-13T00:09:46;9.20;99.90
16174;DHT22;14031;50.158;8.626;2023-03-13T00:12:15;9.20;99.90
16174;DHT22;14031;50.158;8.626;2023-03-13T00:14:42;9.20;99.90
16174;DHT22;14031;50.158;8.626;2023-03-13T00:17:09;9.20;99.90
16174;DHT22;14031;50.158;8.626;2023-03-13T00:19:36;9.20;99.90
16174;DHT22;14031;50.158;8.626;2023-03-13T00:22:03;9.20;99.90
16174;DHT22;14031;50.158;8.626;2023-03-13T00:24:29;9.20;99.90
16174;DHT22;14031;50.158;8.626;2023-03-13T00:26:59;9.20;99.90
16174;DHT22;14031;50.158;8.626;2023-03-13T00:29:27;9.20;99.90
16174;DHT22;14031;50.158;8.626;2023-03-13T00:31:54;9.20;99.90
16174;DHT22;14031;50.158;8.626;2023-03-13T00:34:21;9.20;99.90
16174;DHT22;14031;50.158;8.626;2023-03-13T00:36:48;9.20;99.90
16174;DHT22;14031;50.158;8.626;2023-03-13T00:39:15;9.20;99.90
16174;DHT22;14031;50.158;8.626;2023-03-13T00:41:41;9.20;99.90
16174;DHT22;14031;50.158;8.626;2023-03-13T00:44:10;9.20;99.90
16174;DHT22;14031;50.158;8.626;2023-03-13T00:46:37;9.20;99.90
16174;DHT22;14031;50.158;8.626;2023-03-13T00:49:04;9.20;99.90
16174;DHT22;14031;50.158;8.626;2023-03-13T00:51:31;9.20;99.90
16174;DHT22;14031;50.158;8.626;2023-03-13T00:53:58;9.30;99.90
16174;DHT22;14031;50.158;8.626;2023-03-13T00:56:26;9.30;99.90
16174;DHT22;14031;50.158;8.626;2023-03-13T00:58:53;9.20;99.90
16174;DHT22;14031;50.158;8.626;2023-03-13T01:01:23;9.30;99.90
16174;DHT22;14031;50.158;8.626;2023-03-13T01:03:51;9.30;99.90
16174;DHT22;14031;50.158;8.626;2023-03-13T01:06:20;9.40;99.90
16174;DHT22;14031;50.158;8.626;2023-03-13T01:08:48;9.40;99.90
16174;DHT22;14031;50.158;8.626;2023-03-13T01:11:17;9.40;99.90
16174;DHT22;14031;50.158;8.626;2023-03-13T01:13:45;9.40;99.90
16174;DHT22;14031;50.158;8.626;2023-03-13T01:16:14;9.50;99.90
16174;DHT22;14031;50.158;8.626;2023-03-13T01:18:44;9.50;99.90
16174;DHT22;14031;50.158;8.626;2023-03-13T01:21:11;9.50;99.90
16174;DHT22;14031;50.158;8.626;2023-03-13T01:23:38;9.60;99.90
16174;DHT22;14031;50.158;8.626;2023-03-13T01:26:06;9.60;99.90
16174;DHT22;14031;50.158;8.626;2023-03-13T01:28:34;9.70;99.90
16174;DHT22;14031;50.158;8.626;2023-03-13T01:31:10;9.70;99.90
16174;DHT22;14031;50.158;8.626;2023-03-13T01:33:36;9.70;99.90
16174;DHT22;14031;50.158;8.626;2023-03-13T01:36:05;9.70;99.90
16174;DHT22;14031;50.158;8.626;2023-03-13T01:38:33;9.70;99.90
16174;DHT22;14031;50.158;8.626;2023-03-13T01:41:00;9.70;99.90
16174;DHT22;14031;50.158;8.626;2023-03-13T01:43:28;9.80;99.90
16174;DHT22;14031;50.158;8.626;2023-03-13T01:46:10;9.80;99.90
16174;DHT22;14031;50.158;8.626;2023-03-13T01:48:42;9.80;99.90
16174;DHT22;14031;50.158;8.626;2023-03-13T01:51:16;10.00;99.90
16174;DHT22;14031;50.158;8.626;2023-03-13T01:53:46;9.90;99.90
16174;DHT22;14031;50.158;8.626;2023-03-13T01:56:19;9.80;99.90
16174;DHT22;14031;50.158;8.626;2023-03-13T01:58:48;9.90;99.90
16174;DHT22;14031;50.158;8.626;2023-03-13T02:01:17;9.90;99.90
16174;DHT22;14031;50.158;8.626;2023-03-13T02:03:45;9.90;99.90
16174;DHT22;14031;50.158;8.626;2023-03-13T02:06:15;10.00;99.90
16174;DHT22;14031;50.158;8.626;2023-03-13T02:08:46;10.00;99.90
16174;DHT22;14031;50.158;8.626;2023-03-13T02:11:21;9.90;99.90
16174;DHT22;14031;50.158;8.626;2023-03-13T02:13:49;10.10;99.90
16174;DHT22;14031;50.158;8.626;2023-03-13T02:16:18;10.10;99.90
16174;DHT22;14031;50.158;8.626;2023-03-13T02:18:46;10.10;99.90
16174;DHT22;14031;50.158;8.626;2023-03-13T02:21:21;10.10;99.90
16174;DHT22;14031;50.158;8.626;2023-03-13T02:23:53;10.10;99.90
16174;DHT22;14031;50.158;8.626;2023-03-13T02:26:23;9.90;99.90
16174;DHT22;14031;50.158;8.626;2023-03-13T02:28:50;10.00;99.90
16174;DHT22;14031;50.158;8.626;2023-03-13T02:31:17;10.00;99.90
16174;DHT22;14031;50.158;8.626;2023-03-13T02:33:43;10.00;99.90
16174;DHT22;14031;50.158;8.626;2023-03-13T02:36:11;10.00;99.90
16174;DHT22;14031;50.158;8.626;2023-03-13T02:38:41;10.00;99.90
16174;DHT22;14031;50.158;8.626;2023-03-13T02:41:12;10.00;99.90
16174;DHT22;14031;50.158;8.626;2023-03-13T02:43:40;10.00;99.90
16174;DHT22;14031;50.158;8.626;2023-03-13T02:46:09;10.10;99.90
16174;DHT22;14031;50.158;8.626;2023-03-13T02:48:38;10.00;99.90
16174;DHT22;14031;50.158;8.626;2023-03-13T02:51:12;10.00;99.90
16174;DHT22;14031;50.158;8.626;2023-03-13T02:53:41;9.90;99.90
16174;DHT22;14031;50.158;8.626;2023-03-13T02:56:10;9.90;99.90
16174;DHT22;14031;50.158;8.626;2023-03-13T02:58:40;9.90;99.90
16174;DHT22;14031;50.158;8.626;2023-03-13T03:01:07;9.90;99.90
16174;DHT22;14031;50.158;8.626;2023-03-13T03:03:34;10.00;99.90
16174;DHT22;14031;50.158;8.626;2023-03-13T03:06:01;9.90;99.90
16174;DHT22;14031;50.158;8.626;2023-03-13T03:08:29;10.00;99.90
16174;DHT22;14031;50.158;8.626;2023-03-13T03:10:55;10.00;99.90
16174;DHT22;14031;50.158;8.626;2023-03-13T03:13:22;10.00;99.90
16174;DHT22;14031;50.158;8.626;2023-03-13T03:15:50;10.00;99.90
16174;DHT22;14031;50.158;8.626;2023-03-13T03:18:17;10.00;99.90
16174;DHT22;14031;50.158;8.626;2023-03-13T03:20:44;10.00;99.90
16174;DHT22;14031;50.158;8.626;2023-03-13T03:23:11;10.00;99.90
16174;DHT22;14031;50.158;8.626;2023-03-13T03:25:38;10.00;99.90
16174;DHT22;14031;50.158;8.626;2023-03-13T03:28:04;10.00;99.90
16174;DHT22;14031;50.158;8.626;2023-03-13T03:30:31;10.00;99.90
16174;DHT22;14031;50.158;8.626;2023-03-13T03:33:01;10.00;99.90
16174;DHT22;14031;50.158;8.626;2023-03-13T03:35:28;10.00;99.90
16174;DHT22;14031;50.158;8.626;2023-03-13T03:37:55;10.00;99.90
16174;DHT22;14031;50.158;8.626;2023-03-13T03:40:21;10.00;99.90
16174;DHT22;14031;50.158;8.626;2023-03-13T03:42:48;10.00;99.90
16174;DHT22;14031;50.158;8.626;2023-03-13T03:45:15;10.00;99.90
16174;DHT22;14031;50.158;8.626;2023-03-13T03:47:42;10.00;99.90
16174;DHT22;14031;50.158;8.626;2023-03-13T03:50:10;10.00;99.90
16174;DHT22;14031;50.158;8.626;2023-03-13T03:52:37;10.00;99.90
16174;DHT22;14031;50.158;8.626;2023-03-13T03:55:04;10.00;99.90
16174;DHT22;14031;50.158;8.626;2023-03-13T03:57:31;10.00;99.90
16174;DHT22;14031;50.158;8.626;2023-03-13T03:59:58;10.00;99.90
16174;DHT22;14031;50.158;8.626;2023-03-13T04:02:25;9.90;99.90
16174;DHT22;14031;50.158;8.626;2023-03-13T04:04:51;9.90;99.90
16174;DHT22;14031;50.158;8.626;2023-03-13T04:07:20;10.10;99.90
16174;DHT22;14031;50.158;8.626;2023-03-13T04:09:46;9.90;99.90
16174;DHT22;14031;50.158;8.626;2023-03-13T04:12:13;9.90;99.90
16174;DHT22;14031;50.158;8.626;2023-03-13T04:14:40;9.90;99.90
16174;DHT22;14031;50.158;8.626;2023-03-13T04:17:09;9.80;99.90
16174;DHT22;14031;50.158;8.626;2023-03-13T04:19:35;9.90;99.90
16174;DHT22;14031;50.158;8.626;2023-03-13T04:22:02;9.90;99.90
16174;DHT22;14031;50.158;8.626;2023-03-13T04:24:30;9.90;99.90
16174;DHT22;14031;50.158;8.626;2023-03-13T04:26:57;9.80;99.90
16174;DHT22;14031;50.158;8.626;2023-03-13T04:29:24;9.80;99.90
16174;DHT22;14031;50.158;8.626;2023-03-13T04:31:51;9.80;99.90
16174;DHT22;14031;50.158;8.626;2023-03-13T04:34:18;9.80;99.90
16174;DHT22;14031;50.158;8.626;2023-03-13T04:36:44;9.80;99.90
16174;DHT22;14031;50.158;8.626;2023-03-13T04:39:11;9.80;99.90
16174;DHT22;14031;50.158;8.626;2023-03-13T04:41:39;9.90;99.90
16174;DHT22;14031;50.158;8.626;2023-03-13T04:44:06;9.90;99.90
16174;DHT22;14031;50.158;8.626;2023-03-13T04:46:34;9.80;99.90
16174;DHT22;14031;50.158;8.626;2023-03-13T04:49:01;9.90;99.90
16174;DHT22;14031;50.158;8.626;2023-03-13T04:51:27;9.90;99.90
16174;DHT22;14031;50.158;8.626;2023-03-13T04:53:54;9.90;99.90
16174;DHT22;14031;50.158;8.626;2023-03-13T04:56:23;9.90;99.90
16174;DHT22;14031;50.158;8.626;2023-03-13T04:58:52;9.70;99.90
16174;DHT22;14031;50.158;8.626;2023-03-13T05:01:19;9.90;99.90
16174;DHT22;14031;50.158;8.626;2023-03-13T05:03:46;9.90;99.90
16174;DHT22;14031;50.158;8.626;2023-03-13T05:06:12;9.90;99.90
16174;DHT22;14031;50.158;8.626;2023-03-13T05:08:39;9.90;99.90
16174;DHT22;14031;50.158;8.626;2023-03-13T05:11:06;9.90;99.90
16174;DHT22;14031;50.158;8.626;2023-03-13T05:13:33;9.80;99.90
16174;DHT22;14031;50.158;8.626;2023-03-13T05:16:01;9.90;99.90
16174;DHT22;14031;50.158;8.626;2023-03-13T05:18:28;9.90;99.90
16174;DHT22;14031;50.158;8.626;2023-03-13T05:20:55;10.10;99.90
16174;DHT22;14031;50.158;8.626;2023-03-13T05:23:22;9.90;99.90
16174;DHT22;14031;50.158;8.626;2023-03-13T05:25:49;9.90;99.90
16174;DHT22;14031;50.158;8.626;2023-03-13T05:28:15;10.10;99.90
16174;DHT22;14031;50.158;8.626;2023-03-13T05:30:42;10.00;99.90
16174;DHT22;14031;50.158;8.626;2023-03-13T05:33:10;10.00;99.90
16174;DHT22;14031;50.158;8.626;2023-03-13T05:35:37;10.10;99.90
16174;DHT22;14031;50.158;8.626;2023-03-13T05:38:04;10.10;99.90
16174;DHT22;14031;50.158;8.626;2023-03-13T05:40:30;10.10;99.90
16174;DHT22;14031;50.158;8.626;2023-03-13T05:42:57;10.20;99.90
16174;DHT22;14031;50.158;8.626;2023-03-13T05:45:24;10.20;99.90
16174;DHT22;14031;50.158;8.626;2023-03-13T05:47:51;10.20;99.90
16174;DHT22;14031;50.158;8.626;2023-03-13T05:50:19;10.30;99.90
16174;DHT22;14031;50.158;8.626;2023-03-13T05:52:46;10.30;99.90
16174;DHT22;14031;50.158;8.626;2023-03-13T05:55:13;10.30;99.90
16174;DHT22;14031;50.158;8.626;2023-03-13T05:57:43;10.30;99.90
16174;DHT22;14031;50.158;8.626;2023-03-13T06:00:12;10.40;99.90
16174;DHT22;14031;50.158;8.626;2023-03-13T06:02:39;10.40;99.90
16174;DHT22;14031;50.158;8.626;2023-03-13T06:05:06;10.40;99.90
16174;DHT22;14031;50.158;8.626;2023-03-13T06:07:34;10.40;99.90
16174;DHT22;14031;50.158;8.626;2023-03-13T06:10:01;10.40;99.90
16174;DHT22;14031;50.158;8.626;2023-03-13T06:12:28;10.40;99.90
16174;DHT22;14031;50.158;8.626;2023-03-13T06:14:55;10.50;99.90
16174;DHT22;14031;50.158;8.626;2023-03-13T06:17:21;10.50;99.90
16174;DHT22;14031;50.158;8.626;2023-03-13T06:19:49;10.50;99.90
16174;DHT22;14031;50.158;8.626;2023-03-13T06:22:16;10.50;99.90
16174;DHT22;14031;50.158;8.626;2023-03-13T06:24:44;10.60;99.90
16174;DHT22;14031;50.158;8.626;2023-03-13T06:27:14;10.40;99.90
16174;DHT22;14031;50.158;8.626;2023-03-13T06:29:41;10.60;99.90
16174;DHT22;14031;50.158;8.626;2023-03-13T06:32:07;10.60;99.90
16174;DHT22;14031;50.158;8.626;2023-03-13T06:34:34;10.60;99.90
16174;DHT22;14031;50.158;8.626;2023-03-13T06:37:02;10.60;99.90
16174;DHT22;14031;50.158;8.626;2023-03-13T06:39:29;10.60;99.90
16174;DHT22;14031;50.158;8.626;2023-03-13T06:41:57;10.60;99.90
16174;DHT22;14031;50.158;8.626;2023-03-13T06:44:24;10.60;99.90
16174;DHT22;14031;50.158;8.626;2023-03-13T06:46:51;10.70;99.90
16174;DHT22;14031;50.158;8.626;2023-03-13T06:49:18;10.70;99.90
16174;DHT22;14031;50.158;8.626;2023-03-13T06:51:44;10.70;99.90
16174;DHT22;14031;50.158;8.626;2023-03-13T06:54:11;10.70;99.90
16174;DHT22;14031;50.158;8.626;2023-03-13T06:56:38;10.70;99.90
16174;DHT22;14031;50.158;8.626;2023-03-13T06:59:06;10.80;99.90
16174;DHT22;14031;50.158;8.626;2023-03-13T07:01:33;10.80;99.90
16174;DHT22;14031;50.158;8.626;2023-03-13T07:03:59;10.80;99.90
16174;DHT22;14031;50.158;8.626;2023-03-13T07:06:26;10.80;99.90
16174;DHT22;14031;50.158;8.626;2023-03-13T07:08:53;10.90;99.90
16174;DHT22;14031;50.158;8.626;2023-03-13T07:11:20;10.90;99.90
16174;DHT22;14031;50.158;8.626;2023-03-13T07:13:46;11.00;99.90
16174;DHT22;14031;50.158;8.626;2023-03-13T07:16:15;11.00;99.90
16174;DHT22;14031;50.158;8.626;2023-03-13T07:18:42;11.10;99.90
16174;DHT22;14031;50.158;8.626;2023-03-13T07:21:10;11.10;99.90
16174;DHT22;14031;50.158;8.626;2023-03-13T07:23:37;11.10;99.90
16174;DHT22;14031;50.158;8.626;2023-03-13T07:26:06;11.30;99.90
16174;DHT22;14031;50.158;8.626;2023-03-13T07:28:33;11.10;99.90
16174;DHT22;14031;50.158;8.626;2023-03-13T07:31:04;11.20;99.90
16174;DHT22;14031;50.158;8.626;2023-03-13T07:33:33;11.30;99.90
16174;DHT22;14031;50.158;8.626;2023-03-13T07:35:59;11.30;99.90
16174;DHT22;14031;50.158;8.626;2023-03-13T07:38:26;11.40;99.90
16174;DHT22;14031;50.158;8.626;2023-03-13T07:40:54;11.40;99.90
16174;DHT22;14031;50.158;8.626;2023-03-13T07:43:22;11.40;99.90
16174;DHT22;14031;50.158;8.626;2023-03-13T07:45:51;11.50;99.90
16174;DHT22;14031;50.158;8.626;2023-03-13T07:48:19;11.70;99.90
16174;DHT22;14031;50.158;8.626;2023-03-13T07:50:47;11.60;99.90
16174;DHT22;14031;50.158;8.626;2023-03-13T07:53:14;11.70;99.90
16174;DHT22;14031;50.158;8.626;2023-03-13T07:55:54;11.60;99.90
16174;DHT22;14031;50.158;8.626;2023-03-13T07:58:22;11.70;99.90
16174;DHT22;14031;50.158;8.626;2023-03-13T08:00:49;11.90;99.90
16174;DHT22;14031;50.158;8.626;2023-03-13T08:03:16;11.80;99.90
16174;DHT22;14031;50.158;8.626;2023-03-13T08:05:43;11.90;99.90
16174;DHT22;14031;50.158;8.626;2023-03-13T08:08:11;11.90;99.90
16174;DHT22;14031;50.158;8.626;2023-03-13T08:10:38;11.80;99.90
16174;DHT22;14031;50.158;8.626;2023-03-13T08:13:05;12.00;99.90
16174;DHT22;14031;50.158;8.626;2023-03-13T08:15:32;12.00;99.90
16174;DHT22;14031;50.158;8.626;2023-03-13T08:17:58;12.00;99.90
16174;DHT22;14031;50.158;8.626;2023-03-13T08:20:25;12.00;99.90
16174;DHT22;14031;50.158;8.626;2023-03-13T08:22:54;12.00;99.90
16174;DHT22;14031;50.158;8.626;2023-03-13T08:25:23;12.10;99.90
16174;DHT22;14031;50.158;8.626;2023-03-13T08:27:50;12.10;99.90
16174;DHT22;14031;50.158;8.626;2023-03-13T08:30:17;12.20;99.90
16174;DHT22;14031;50.158;8.626;2023-03-13T08:32:44;12.30;99.90
16174;DHT22;14031;50.158;8.626;2023-03-13T08:35:10;12.40;99.90
16174;DHT22;14031;50.158;8.626;2023-03-13T08:37:37;12.40;99.90
16174;DHT22;14031;50.158;8.626;2023-03-13T08:40:05;12.50;99.90
16174;DHT22;14031;50.158;8.626;2023-03-13T08:42:37;12.60;99.90
16174;DHT22;14031;50.158;8.626;2023-03-13T08:45:05;12.80;99.90
16174;DHT22;14031;50.158;8.626;2023-03-13T08:47:33;12.90;99.90
16174;DHT22;14031;50.158;8.626;2023-03-13T08:50:00;13.00;99.90
16174;DHT22;14031;50.158;8.626;2023-03-13T08:52:26;13.10;99.90
16174;DHT22;14031;50.158;8.626;2023-03-13T08:54:53;13.30;99.90
16174;DHT22;14031;50.158;8.626;2023-03-13T08:57:20;13.10;99.90
16174;DHT22;14031;50.158;8.626;2023-03-13T08:59:49;13.20;99.90
16174;DHT22;14031;50.158;8.626;2023-03-13T09:02:16;13.30;99.90
16174;DHT22;14031;50.158;8.626;2023-03-13T09:04:46;13.30;99.90
16174;DHT22;14031;50.158;8.626;2023-03-13T09:07:13;13.30;99.90
16174;DHT22;14031;50.158;8.626;2023-03-13T09:09:40;13.20;99.90
16174;DHT22;14031;50.158;8.626;2023-03-13T09:12:07;13.30;99.90
16174;DHT22;14031;50.158;8.626;2023-03-13T09:14:34;13.30;99.90
16174;DHT22;14031;50.158;8.626;2023-03-13T09:17:02;13.30;99.90
16174;DHT22;14031;50.158;8.626;2023-03-13T09:19:29;13.40;99.90
16174;DHT22;14031;50.158;8.626;2023-03-13T09:21:56;13.50;99.90
16174;DHT22;14031;50.158;8.626;2023-03-13T09:24:23;13.50;99.90
16174;DHT22;14031;50.158;8.626;2023-03-13T09:26:50;13.70;99.90
16174;DHT22;14031;50.158;8.626;2023-03-13T09:29:17;13.70;99.90
16174;DHT22;14031;50.158;8.626;2023-03-13T09:31:44;13.70;99.90
16174;DHT22;14031;50.158;8.626;2023-03-13T09:34:12;13.80;99.90
16174;DHT22;14031;50.158;8.626;2023-03-13T09:36:39;13.70;99.90
16174;DHT22;14031;50.158;8.626;2023-03-13T09:39:06;13.80;99.90
16174;DHT22;14031;50.158;8.626;2023-03-13T09:41:37;13.80;99.90
16174;DHT22;14031;50.158;8.626;2023-03-13T09:44:09;13.90;99.90
16174;DHT22;14031;50.158;8.626;2023-03-13T09:46:40;13.90;99.90
16174;DHT22;14031;50.158;8.626;2023-03-13T09:49:22;14.10;99.90
16174;DHT22;14031;50.158;8.626;2023-03-13T09:51:58;14.00;99.90
16174;DHT22;14031;50.158;8.626;2023-03-13T09:54:30;14.10;99.90
16174;DHT22;14031;50.158;8.626;2023-03-13T09:57:06;14.10;99.90
16174;DHT22;14031;50.158;8.626;2023-03-13T09:59:45;14.20;99.90
16174;DHT22;14031;50.158;8.626;2023-03-13T10:02:28;14.20;99.90
16174;DHT22;14031;50.158;8.626;2023-03-13T10:05:07;14.10;99.90
16174;DHT22;14031;50.158;8.626;2023-03-13T10:07:37;14.10;99.90
16174;DHT22;14031;50.158;8.626;2023-03-13T10:10:09;14.10;99.90
16174;DHT22;14031;50.158;8.626;2023-03-13T10:12:42;14.10;99.90
16174;DHT22;14031;50.158;8.626;2023-03-13T10:15:29;14.10;99.90
16174;DHT22;14031;50.158;8.626;2023-03-13T10:17:58;14.20;99.90
16174;DHT22;14031;50.158;8.626;2023-03-13T10:20:33;14.20;99.90
16174;DHT22;14031;50.158;8.626;2023-03-13T10:23:11;14.30;99.90
16174;DHT22;14031;50.158;8.626;2023-03-13T10:25:40;14.50;99.90
16174;DHT22;14031;50.158;8.626;2023-03-13T10:28:10;14.70;99.90
16174;DHT22;14031;50.158;8.626;2023-03-13T10:30:42;14.80;99.90
16174;DHT22;14031;50.158;8.626;2023-03-13T10:33:19;14.90;99.90
16174;DHT22;14031;50.158;8.626;2023-03-13T10:36:03;15.00;99.90
16174;DHT22;14031;50.158;8.626;2023-03-13T10:38:33;15.00;99.90
16174;DHT22;14031;50.158;8.626;2023-03-13T10:41:02;15.00;99.90
16174;DHT22;14031;50.158;8.626;2023-03-13T10:43:32;15.00;99.90
16174;DHT22;14031;50.158;8.626;2023-03-13T10:45:59;14.90;99.90
16174;DHT22;14031;50.158;8.626;2023-03-13T10:48:29;14.90;99.90
16174;DHT22;14031;50.158;8.626;2023-03-13T10:51:02;14.80;99.90
16174;DHT22;14031;50.158;8.626;2023-03-13T10:53:32;14.80;99.90
16174;DHT22;14031;50.158;8.626;2023-03-13T10:56:08;14.80;99.90
16174;DHT22;14031;50.158;8.626;2023-03-13T10:58:39;14.90;99.90
16174;DHT22;14031;50.158;8.626;2023-03-13T11:01:13;15.00;99.90
16174;DHT22;14031;50.158;8.626;2023-03-13T11:03:42;15.10;99.90
16174;DHT22;14031;50.158;8.626;2023-03-13T11:06:31;15.20;99.90
16174;DHT22;14031;50.158;8.626;2023-03-13T11:09:04;15.10;99.90
16174;DHT22;14031;50.158;8.626;2023-03-13T11:11:43;15.20;99.90
16174;DHT22;14031;50.158;8.626;2023-03-13T11:14:14;15.10;99.90
16174;DHT22;14031;50.158;8.626;2023-03-13T11:16:46;15.20;99.90
16174;DHT22;14031;50.158;8.626;2023-03-13T11:19:28;15.20;99.90
16174;DHT22;14031;50.158;8.626;2023-03-13T11:24:51;15.10;99.90
16174;DHT22;14031;50.158;8.626;2023-03-13T11:27:28;15.00;99.90
16174;DHT22;14031;50.158;8.626;2023-03-13T11:30:14;15.00;99.90
16174;DHT22;14031;50.158;8.626;2023-03-13T11:32:48;15.00;99.90
16174;DHT22;14031;50.158;8.626;2023-03-13T11:35:34;15.10;99.90
16174;DHT22;14031;50.158;8.626;2023-03-13T11:38:07;15.10;99.90
16174;DHT22;14031;50.158;8.626;2023-03-13T11:40:42;15.00;99.90
16174;DHT22;14031;50.158;8.626;2023-03-13T11:43:35;15.00;99.90
16174;DHT22;14031;50.158;8.626;2023-03-13T11:46:17;14.90;99.90
16174;DHT22;14031;50.158;8.626;2023-03-13T11:49:17;14.90;99.90
16174;DHT22;14031;50.158;8.626;2023-03-13T11:51:56;14.90;99.90
16174;DHT22;14031;50.158;8.626;2023-03-13T11:54:48;14.90;99.90
16174;DHT22;14031;50.158;8.626;2023-03-13T11:57:23;14.90;99.90
16174;DHT22;14031;50.158;8.626;2023-03-13T12:00:06;14.90;99.90
16174;DHT22;14031;50.158;8.626;2023-03-13T12:02:40;14.90;99.90
16174;DHT22;14031;50.158;8.626;2023-03-13T12:05:11;15.00;99.90
16174;DHT22;14031;50.158;8.626;2023-03-13T12:07:41;15.00;99.90
16174;DHT22;14031;50.158;8.626;2023-03-13T12:10:14;15.10;99.90
16174;DHT22;14031;50.158;8.626;2023-03-13T12:12:45;15.10;99.90
16174;DHT22;14031;50.158;8.626;2023-03-13T12:15:18;15.20;99.90
16174;DHT22;14031;50.158;8.626;2023-03-13T12:17:50;15.20;99.90
16174;DHT22;14031;50.158;8.626;2023-03-13T12:20:21;15.10;99.90
16174;DHT22;14031;50.158;8.626;2023-03-13T12:22:54;15.20;99.90
16174;DHT22;14031;50.158;8.626;2023-03-13T12:25:25;15.10;99.90
16174;DHT22;14031;50.158;8.626;2023-03-13T12:27:56;15.10;99.90
16174;DHT22;14031;50.158;8.626;2023-03-13T12:30:30;15.10;99.90
16174;DHT22;14031;50.158;8.626;2023-03-13T12:33:04;15.10;99.90
16174;DHT22;14031;50.158;8.626;2023-03-13T12:35:36;15.00;99.90
16174;DHT22;14031;50.158;8.626;2023-03-13T12:38:13;15.00;99.90
16174;DHT22;14031;50.158;8.626;2023-03-13T12:40:50;15.10;99.90
16174;DHT22;14031;50.158;8.626;2023-03-13T12:43:22;15.00;99.90
16174;DHT22;14031;50.158;8.626;2023-03-13T12:46:12;15.00;99.90
16174;DHT22;14031;50.158;8.626;2023-03-13T12:48:56;15.00;99.90
16174;DHT22;14031;50.158;8.626;2023-03-13T12:51:37;15.10;99.90
16174;DHT22;14031;50.158;8.626;2023-03-13T12:54:21;15.10;99.90
16174;DHT22;14031;50.158;8.626;2023-03-13T12:57:05;15.20;99.90
16174;DHT22;14031;50.158;8.626;2023-03-13T12:59:37;15.10;99.90
16174;DHT22;14031;50.158;8.626;2023-03-13T13:02:14;15.10;99.90
16174;DHT22;14031;50.158;8.626;2023-03-13T13:04:44;15.00;99.90
16174;DHT22;14031;50.158;8.626;2023-03-13T13:07:28;14.90;99.90
16174;DHT22;14031;50.158;8.626;2023-03-13T13:10:17;15.00;99.90
16174;DHT22;14031;50.158;8.626;2023-03-13T13:13:24;14.90;99.90
16174;DHT22;14031;50.158;8.626;2023-03-13T13:15:59;15.00;99.90
16174;DHT22;14031;50.158;8.626;2023-03-13T13:18:28;15.00;99.90
16174;DHT22;14031;50.158;8.626;2023-03-13T13:21:25;15.10;99.90
16174;DHT22;14031;50.158;8.626;2023-03-13T13:23:52;15.30;99.90
16174;DHT22;14031;50.158;8.626;2023-03-13T13:26:48;15.40;99.90
16174;DHT22;14031;50.158;8.626;2023-03-13T13:32:46;15.60;99.90
16174;DHT22;14031;50.158;8.626;2023-03-13T13:35:25;15.50;99.90
16174;DHT22;14031;50.158;8.626;2023-03-13T13:38:20;15.50;99.90
16174;DHT22;14031;50.158;8.626;2023-03-13T13:40:58;15.50;99.90
16174;DHT22;14031;50.158;8.626;2023-03-13T13:43:29;15.50;99.90
16174;DHT22;14031;50.158;8.626;2023-03-13T13:46:00;15.40;99.90
16174;DHT22;14031;50.158;8.626;2023-03-13T13:48:30;15.50;99.90
16174;DHT22;14031;50.158;8.626;2023-03-13T13:51:22;15.60;99.90
16174;DHT22;14031;50.158;8.626;2023-03-13T13:53:52;15.80;99.90
16174;DHT22;14031;50.158;8.626;2023-03-13T13:56:35;16.00;99.90
16174;DHT22;14031;50.158;8.626;2023-03-13T13:59:20;16.30;99.90
16174;DHT22;14031;50.158;8.626;2023-03-13T14:01:50;16.60;99.90
16174;DHT22;14031;50.158;8.626;2023-03-13T14:04:37;16.70;99.90
16174;DHT22;14031;50.158;8.626;2023-03-13T14:07:14;16.70;99.90
16174;DHT22;14031;50.158;8.626;2023-03-13T14:09:48;16.70;99.90
16174;DHT22;14031;50.158;8.626;2023-03-13T14:12:30;16.70;99.90
16174;DHT22;14031;50.158;8.626;2023-03-13T14:15:21;16.50;99.90
16174;DHT22;14031;50.158;8.626;2023-03-13T14:17:50;16.50;99.90
16174;DHT22;14031;50.158;8.626;2023-03-13T14:20:28;16.50;99.90
16174;DHT22;14031;50.158;8.626;2023-03-13T14:22:56;16.40;99.90
16174;DHT22;14031;50.158;8.626;2023-03-13T14:25:49;16.40;99.90
16174;DHT22;14031;50.158;8.626;2023-03-13T14:28:18;16.40;99.90
16174;DHT22;14031;50.158;8.626;2023-03-13T14:30:46;16.30;99.90
16174;DHT22;14031;50.158;8.626;2023-03-13T14:33:14;16.40;99.90
16174;DHT22;14031;50.158;8.626;2023-03-13T14:35:42;16.40;99.90
16174;DHT22;14031;50.158;8.626;2023-03-13T14:38:16;16.40;99.90
16174;DHT22;14031;50.158;8.626;2023-03-13T14:40:46;16.50;99.90
16174;DHT22;14031;50.158;8.626;2023-03-13T14:43:19;16.50;99.90
16174;DHT22;14031;50.158;8.626;2023-03-13T14:45:47;16.50;99.90
16174;DHT22;14031;50.158;8.626;2023-03-13T14:48:19;16.50;99.90
16174;DHT22;14031;50.158;8.626;2023-03-13T14:50:50;16.60;99.90
16174;DHT22;14031;50.158;8.626;2023-03-13T14:53:20;16.30;99.90
16174;DHT22;14031;50.158;8.626;2023-03-13T14:56:07;16.40;99.90
16174;DHT22;14031;50.158;8.626;2023-03-13T14:58:35;16.20;99.90
16174;DHT22;14031;50.158;8.626;2023-03-13T15:01:12;16.30;99.90
16174;DHT22;14031;50.158;8.626;2023-03-13T15:03:43;16.20;99.90
16174;DHT22;14031;50.158;8.626;2023-03-13T15:06:16;16.10;99.90
16174;DHT22;14031;50.158;8.626;2023-03-13T15:08:46;16.00;99.90
16174;DHT22;14031;50.158;8.626;2023-03-13T15:11:27;16.00;99.90
16174;DHT22;14031;50.158;8.626;2023-03-13T15:13:55;15.80;99.90
16174;DHT22;14031;50.158;8.626;2023-03-13T15:16:23;15.70;99.90
16174;DHT22;14031;50.158;8.626;2023-03-13T15:18:51;15.40;99.90
16174;DHT22;14031;50.158;8.626;2023-03-13T15:21:25;15.00;99.90
16174;DHT22;14031;50.158;8.626;2023-03-13T15:23:53;14.80;99.90
16174;DHT22;14031;50.158;8.626;2023-03-13T15:26:22;14.70;99.90
16174;DHT22;14031;50.158;8.626;2023-03-13T15:28:49;14.40;99.90
16174;DHT22;14031;50.158;8.626;2023-03-13T15:31:16;14.30;99.90
16174;DHT22;14031;50.158;8.626;2023-03-13T15:33:45;14.10;99.90
16174;DHT22;14031;50.158;8.626;2023-03-13T15:36:12;14.10;99.90
16174;DHT22;14031;50.158;8.626;2023-03-13T15:38:40;14.10;99.90
16174;DHT22;14031;50.158;8.626;2023-03-13T15:41:06;13.80;99.90
16174;DHT22;14031;50.158;8.626;2023-03-13T15:43:34;13.90;99.90
16174;DHT22;14031;50.158;8.626;2023-03-13T15:46:02;13.80;99.90
16174;DHT22;14031;50.158;8.626;2023-03-13T15:48:29;13.80;99.90
16174;DHT22;14031;50.158;8.626;2023-03-13T15:50:58;13.80;99.90
16174;DHT22;14031;50.158;8.626;2023-03-13T15:53:26;13.80;99.90
16174;DHT22;14031;50.158;8.626;2023-03-13T15:55:57;13.70;99.90
16174;DHT22;14031;50.158;8.626;2023-03-13T15:58:25;13.70;99.90
16174;DHT22;14031;50.158;8.626;2023-03-13T16:00:53;13.80;99.90
16174;DHT22;14031;50.158;8.626;2023-03-13T16:03:21;13.80;99.90